Time;durP1;ratioP1;P1;durP2;ratioP2;P2;SDS_P1;SDS_P2;PMS_P1;PMS_P2;Temp;Humidity;BMP_temperature;BMP_pressure;BME280_temperature;BME280_humidity;BME280_pressure;Samples;Min_cycle;Max_cycle;Signal;HPM_P1;HPM_P2
2022/07/10 00:00:09;;;;;;;;;;;13.50;99.90;;;;;;4790161;29;20336;-69
2022/07/10 00:02:35;;;;;;;;;;;13.50;99.90;;;;;;4789832;29;19925;-71
2022/07/10 00:05:00;;;;;;;;;;;13.50;99.90;;;;;;4790097;29;19925;-70
2022/07/10 00:07:26;;;;;;;;;;;13.40;99.90;;;;;;4786886;29;19926;-68
2022/07/10 00:09:51;;;;;;;;;;;13.30;99.90;;;;;;4801986;29;20375;-71
2022/07/10 00:12:17;;;;;;;;;;;13.30;99.90;;;;;;4786450;30;20383;-73
2022/07/10 00:14:42;;;;;;;;;;;13.30;99.90;;;;;;4787043;30;20013;-69
2022/07/10 00:17:08;;;;;;;;;;;13.30;99.90;;;;;;4801328;29;19925;-72
2022/07/10 00:19:33;;;;;;;;;;;13.20;99.90;;;;;;4802186;29;19933;-71
2022/07/10 00:21:59;;;;;;;;;;;13.30;99.90;;;;;;4801410;29;19925;-70
2022/07/10 00:24:24;;;;;;;;;;;13.30;99.90;;;;;;4802237;29;19948;-72
2022/07/10 00:26:50;;;;;;;;;;;13.20;99.90;;;;;;4802484;29;19968;-71
2022/07/10 00:29:15;;;;;;;;;;;13.30;99.90;;;;;;4802271;29;20012;-70
2022/07/10 00:31:41;;;;;;;;;;;13.30;99.90;;;;;;4802268;29;19929;-70
2022/07/10 00:34:06;;;;;;;;;;;13.30;99.90;;;;;;4801869;29;19926;-69
2022/07/10 00:36:32;;;;;;;;;;;13.20;99.90;;;;;;4802113;29;20020;-72
2022/07/10 00:38:57;;;;;;;;;;;13.20;99.90;;;;;;4801773;29;20394;-72
2022/07/10 00:41:23;;;;;;;;;;;13.10;99.90;;;;;;4801691;29;19972;-71
2022/07/10 00:43:52;;;;;;;;;;;13.20;99.90;;;;;;4801524;29;19975;-69
2022/07/10 00:46:20;;;;;;;;;;;13.10;99.90;;;;;;4801942;29;19926;-71
2022/07/10 00:48:46;;;;;;;;;;;13.20;99.90;;;;;;4801395;29;19925;-73
2022/07/10 00:51:12;;;;;;;;;;;13.10;99.90;;;;;;4801559;29;19925;-70
2022/07/10 00:53:38;;;;;;;;;;;13.20;99.90;;;;;;4786580;30;19932;-71
2022/07/10 00:56:04;;;;;;;;;;;13.20;99.90;;;;;;4786924;30;19925;-69
2022/07/10 00:58:29;;;;;;;;;;;13.20;99.90;;;;;;4787579;29;19925;-71
2022/07/10 01:00:55;;;;;;;;;;;13.30;99.90;;;;;;4801842;29;19937;-71
2022/07/10 01:03:20;;;;;;;;;;;13.20;99.90;;;;;;4787449;29;19925;-72
2022/07/10 01:05:46;;;;;;;;;;;13.20;99.90;;;;;;4801791;29;19985;-71
2022/07/10 01:08:11;;;;;;;;;;;13.30;99.90;;;;;;4801451;29;19926;-72
2022/07/10 01:10:37;;;;;;;;;;;13.20;99.90;;;;;;4786895;29;19925;-72
2022/07/10 01:13:03;;;;;;;;;;;13.10;99.90;;;;;;4787435;29;19948;-72
2022/07/10 01:15:29;;;;;;;;;;;13.10;99.90;;;;;;4801687;29;19975;-72
2022/07/10 01:17:55;;;;;;;;;;;13.10;99.90;;;;;;4787553;29;19929;-71
2022/07/10 01:20:29;;;;;;;;;;;13.10;99.90;;;;;;4786526;29;20405;-71
2022/07/10 01:22:55;;;;;;;;;;;13.10;99.90;;;;;;4801310;29;19936;-72
2022/07/10 01:25:20;;;;;;;;;;;13.10;99.90;;;;;;4801346;29;19925;-73
2022/07/10 01:27:46;;;;;;;;;;;13.10;99.90;;;;;;4801627;29;19925;-72
2022/07/10 01:30:11;;;;;;;;;;;13.10;99.90;;;;;;4801345;29;19925;-70
2022/07/10 01:32:40;;;;;;;;;;;13.10;99.90;;;;;;4801456;29;20008;-72
2022/07/10 01:35:06;;;;;;;;;;;13.10;99.90;;;;;;4789405;29;19926;-71
2022/07/10 01:37:31;;;;;;;;;;;13.20;99.90;;;;;;4789817;30;20020;-71
2022/07/10 01:39:57;;;;;;;;;;;13.20;99.90;;;;;;4804730;29;20071;-69
2022/07/10 01:42:22;;;;;;;;;;;13.20;99.90;;;;;;4789895;29;20081;-69
2022/07/10 01:44:48;;;;;;;;;;;13.10;99.90;;;;;;4804545;29;20485;-70
2022/07/10 01:47:13;;;;;;;;;;;13.10;99.90;;;;;;4803882;29;19945;-69
2022/07/10 01:49:39;;;;;;;;;;;13.00;99.90;;;;;;4789548;30;19925;-72
2022/07/10 01:52:04;;;;;;;;;;;13.00;99.90;;;;;;4804320;29;20318;-72
2022/07/10 01:54:30;;;;;;;;;;;12.90;99.90;;;;;;4789265;29;19929;-72
2022/07/10 01:56:55;;;;;;;;;;;12.90;99.90;;;;;;4804436;29;19953;-71
2022/07/10 01:59:21;;;;;;;;;;;12.90;99.90;;;;;;4804387;29;19932;-71
2022/07/10 02:01:46;;;;;;;;;;;12.80;99.90;;;;;;4789201;29;19929;-69
2022/07/10 02:06:56;;;;;;;;;;;12.80;99.90;;;;;;4788947;29;19965;-70
2022/07/10 02:09:22;;;;;;;;;;;12.70;99.90;;;;;;4804164;29;20014;-70
2022/07/10 02:11:47;;;;;;;;;;;12.70;99.90;;;;;;4804181;29;19979;-70
2022/07/10 02:14:13;;;;;;;;;;;12.60;99.90;;;;;;4804159;29;19925;-71
2022/07/10 02:16:38;;;;;;;;;;;12.60;99.90;;;;;;4774444;30;20368;-70
2022/07/10 02:19:04;;;;;;;;;;;12.60;99.90;;;;;;4789038;29;19929;-70
2022/07/10 02:21:29;;;;;;;;;;;12.50;99.90;;;;;;4804423;29;19925;-71
2022/07/10 02:23:55;;;;;;;;;;;12.60;99.90;;;;;;4786512;30;19975;-71
2022/07/10 02:26:20;;;;;;;;;;;12.50;99.90;;;;;;4804050;29;19925;-70
2022/07/10 02:28:46;;;;;;;;;;;12.40;99.90;;;;;;4803633;29;19926;-72
2022/07/10 02:31:11;;;;;;;;;;;12.40;99.90;;;;;;4803820;29;19925;-72
2022/07/10 02:33:37;;;;;;;;;;;12.40;99.90;;;;;;4803114;29;19925;-70
2022/07/10 02:36:03;;;;;;;;;;;12.40;99.90;;;;;;4803916;29;20080;-71
2022/07/10 02:38:29;;;;;;;;;;;12.30;99.90;;;;;;4803637;29;19925;-70
2022/07/10 02:40:54;;;;;;;;;;;12.30;99.90;;;;;;4803748;29;19936;-71
2022/07/10 02:43:20;;;;;;;;;;;12.20;99.90;;;;;;4803910;29;20237;-71
2022/07/10 02:45:45;;;;;;;;;;;12.30;99.90;;;;;;4788222;29;19936;-73
2022/07/10 02:48:11;;;;;;;;;;;12.20;99.90;;;;;;4803405;29;19926;-72
2022/07/10 02:50:36;;;;;;;;;;;12.30;99.90;;;;;;4803609;29;19955;-72
2022/07/10 02:53:03;;;;;;;;;;;12.20;99.90;;;;;;4803350;29;20027;-71
2022/07/10 02:55:31;;;;;;;;;;;12.20;99.90;;;;;;4789612;29;19932;-71
2022/07/10 02:57:57;;;;;;;;;;;12.20;99.90;;;;;;4803355;29;19975;-69
2022/07/10 03:00:23;;;;;;;;;;;12.10;99.90;;;;;;4803143;29;19926;-70
2022/07/10 03:02:48;;;;;;;;;;;12.10;99.90;;;;;;4805505;29;19982;-73
2022/07/10 03:05:14;;;;;;;;;;;12.10;99.90;;;;;;4791312;29;19977;-72
2022/07/10 03:07:39;;;;;;;;;;;12.10;99.90;;;;;;4791562;29;19932;-72
2022/07/10 03:10:05;;;;;;;;;;;12.00;99.90;;;;;;4776221;29;20017;-70
2022/07/10 03:12:30;;;;;;;;;;;12.00;99.90;;;;;;4790988;29;19933;-71
2022/07/10 03:14:56;;;;;;;;;;;12.10;99.90;;;;;;4776856;29;20011;-72
2022/07/10 03:17:21;;;;;;;;;;;12.00;99.90;;;;;;4806439;29;19932;-69
2022/07/10 03:19:47;;;;;;;;;;;12.00;99.90;;;;;;4776343;29;19925;-71
2022/07/10 03:22:12;;;;;;;;;;;12.00;99.90;;;;;;4790813;29;19925;-69
2022/07/10 03:24:38;;;;;;;;;;;12.00;99.90;;;;;;4790650;29;19932;-71
2022/07/10 03:27:05;;;;;;;;;;;12.00;99.90;;;;;;4790875;29;19929;-72
2022/07/10 03:29:30;;;;;;;;;;;12.00;99.90;;;;;;4791412;29;19925;-70
2022/07/10 03:31:56;;;;;;;;;;;12.00;99.90;;;;;;4790413;29;19925;-71
2022/07/10 03:34:21;;;;;;;;;;;12.00;99.90;;;;;;4790673;29;19931;-71
2022/07/10 03:36:47;;;;;;;;;;;12.00;99.90;;;;;;4806930;29;19991;-71
2022/07/10 03:39:12;;;;;;;;;;;12.10;99.90;;;;;;4790359;29;19925;-72
2022/07/10 03:41:38;;;;;;;;;;;12.10;99.90;;;;;;4790715;29;20276;-70
2022/07/10 03:44:05;;;;;;;;;;;12.10;99.90;;;;;;4806837;29;20302;-70
2022/07/10 03:46:31;;;;;;;;;;;12.20;99.90;;;;;;4806340;29;20451;-72
2022/07/10 03:48:56;;;;;;;;;;;12.30;99.90;;;;;;4790377;29;19929;-73
2022/07/10 03:51:22;;;;;;;;;;;12.50;99.90;;;;;;4790600;29;19928;-71
2022/07/10 03:53:47;;;;;;;;;;;12.40;99.90;;;;;;4775334;29;19932;-71
2022/07/10 03:57:53;;;;;;;;;;;12.40;99.90;;;;;;4790307;29;19924;-71
2022/07/10 03:58:58;;;;;;;;;;;12.50;99.90;;;;;;4789931;29;19925;-73
2022/07/10 04:01:23;;;;;;;;;;;12.60;99.90;;;;;;4790330;29;20011;-70
2022/07/10 04:03:49;;;;;;;;;;;12.60;99.90;;;;;;4789668;29;19932;-72
2022/07/10 04:06:14;;;;;;;;;;;12.60;99.90;;;;;;4790033;29;20005;-73
2022/07/10 04:08:40;;;;;;;;;;;12.70;99.90;;;;;;4790102;29;19925;-71
2022/07/10 04:11:06;;;;;;;;;;;12.70;99.90;;;;;;4789991;29;19925;-71
2022/07/10 04:13:31;;;;;;;;;;;12.80;99.90;;;;;;4790444;29;19948;-70
2022/07/10 04:15:57;;;;;;;;;;;12.80;99.90;;;;;;4790718;29;19925;-71
2022/07/10 04:18:22;;;;;;;;;;;12.90;99.90;;;;;;4789508;29;19932;-71
2022/07/10 04:20:48;;;;;;;;;;;12.90;99.90;;;;;;4790357;29;19925;-72
2022/07/10 04:23:13;;;;;;;;;;;13.00;99.90;;;;;;4789723;29;20255;-72
2022/07/10 04:25:39;;;;;;;;;;;13.00;99.90;;;;;;4790302;29;19925;-71
2022/07/10 04:28:04;;;;;;;;;;;13.10;99.90;;;;;;4806365;29;19929;-69
2022/07/10 04:30:30;;;;;;;;;;;13.10;99.90;;;;;;4790280;29;20378;-73
2022/07/10 04:32:56;;;;;;;;;;;13.10;99.90;;;;;;4805611;29;19925;-71
2022/07/10 04:35:21;;;;;;;;;;;13.20;99.90;;;;;;4789859;29;20441;-72
2022/07/10 04:37:47;;;;;;;;;;;13.20;99.90;;;;;;4789593;29;19931;-71
2022/07/10 04:40:12;;;;;;;;;;;13.30;99.90;;;;;;4806273;29;19929;-70
2022/07/10 04:42:38;;;;;;;;;;;13.30;99.90;;;;;;4789793;29;20294;-71
2022/07/10 04:45:03;;;;;;;;;;;13.30;99.90;;;;;;4806095;29;19920;-72
2022/07/10 04:47:29;;;;;;;;;;;13.40;99.90;;;;;;4774308;29;19927;-72
2022/07/10 04:49:54;;;;;;;;;;;13.50;99.90;;;;;;4790313;29;19993;-70
2022/07/10 04:52:20;;;;;;;;;;;13.50;99.90;;;;;;4790130;29;19925;-74
2022/07/10 04:54:45;;;;;;;;;;;13.50;99.90;;;;;;4790190;29;20359;-73
2022/07/10 04:57:10;;;;;;;;;;;13.60;99.90;;;;;;4789608;29;19932;-72
2022/07/10 04:59:36;;;;;;;;;;;13.50;99.90;;;;;;4789946;29;19932;-74
2022/07/10 05:02:02;;;;;;;;;;;13.60;99.90;;;;;;4789087;29;19951;-71
2022/07/10 05:04:27;;;;;;;;;;;13.70;99.90;;;;;;4789940;29;19925;-71
2022/07/10 05:06:53;;;;;;;;;;;13.70;99.90;;;;;;4789740;29;20029;-70
2022/07/10 05:09:21;;;;;;;;;;;14.00;99.90;;;;;;4809469;29;20012;-70
2022/07/10 05:11:47;;;;;;;;;;;13.90;99.90;;;;;;4808983;29;19925;-72
2022/07/10 05:14:12;;;;;;;;;;;14.00;99.90;;;;;;4793166;29;19932;-71
2022/07/10 05:16:38;;;;;;;;;;;14.10;99.90;;;;;;4792707;29;19925;-71
2022/07/10 05:19:03;;;;;;;;;;;14.20;99.90;;;;;;4793356;29;20279;-72
2022/07/10 05:21:29;;;;;;;;;;;14.30;99.90;;;;;;4792667;29;19932;-71
2022/07/10 05:23:54;;;;;;;;;;;14.30;99.90;;;;;;4792954;29;19925;-70
2022/07/10 05:26:20;;;;;;;;;;;14.40;99.90;;;;;;4792713;29;19925;-72
2022/07/10 05:28:45;;;;;;;;;;;14.40;99.90;;;;;;4792835;29;19981;-71
2022/07/10 05:31:11;;;;;;;;;;;14.40;99.90;;;;;;4774674;30;19925;-71
2022/07/10 05:33:38;;;;;;;;;;;14.50;99.90;;;;;;4804130;29;19948;-71
2022/07/10 05:36:03;;;;;;;;;;;14.40;99.90;;;;;;4789915;29;19925;-72
2022/07/10 05:38:29;;;;;;;;;;;14.40;99.90;;;;;;4791283;29;20017;-72
2022/07/10 05:40:54;;;;;;;;;;;14.40;99.90;;;;;;4804831;29;19925;-72
2022/07/10 05:43:20;;;;;;;;;;;14.40;99.90;;;;;;4804783;29;20008;-74
2022/07/10 05:45:45;;;;;;;;;;;14.40;99.90;;;;;;4789472;29;20327;-72
2022/07/10 05:48:12;;;;;;;;;;;14.50;99.90;;;;;;4788875;29;20398;-70
2022/07/10 05:50:38;;;;;;;;;;;14.50;99.90;;;;;;4790678;29;19925;-71
2022/07/10 05:53:04;;;;;;;;;;;14.50;99.90;;;;;;4804392;29;20383;-73
2022/07/10 05:55:29;;;;;;;;;;;14.50;99.90;;;;;;4789470;29;20031;-69
2022/07/10 05:57:55;;;;;;;;;;;14.50;99.90;;;;;;4804447;29;19932;-71
2022/07/10 06:00:20;;;;;;;;;;;14.40;99.90;;;;;;4804444;29;19925;-72
2022/07/10 06:02:46;;;;;;;;;;;14.50;99.90;;;;;;4789913;29;19929;-70
2022/07/10 06:05:11;;;;;;;;;;;14.50;99.90;;;;;;4790474;29;19984;-70
2022/07/10 06:07:37;;;;;;;;;;;14.40;99.90;;;;;;4804365;29;19968;-72
2022/07/10 06:10:03;;;;;;;;;;;14.50;99.90;;;;;;4804602;29;19968;-70
2022/07/10 06:12:29;;;;;;;;;;;14.60;99.90;;;;;;4789169;29;19932;-71
2022/07/10 06:14:54;;;;;;;;;;;14.70;99.90;;;;;;4789386;29;20303;-70
2022/07/10 06:17:20;;;;;;;;;;;14.80;99.90;;;;;;4789869;29;19925;-71
2022/07/10 06:19:45;;;;;;;;;;;14.90;99.90;;;;;;4803734;29;20113;-70
2022/07/10 06:24:55;;;;;;;;;;;15.00;99.90;;;;;;4790285;29;19929;-71
2022/07/10 06:27:21;;;;;;;;;;;15.10;99.90;;;;;;4788875;29;19925;-72
2022/07/10 06:29:47;;;;;;;;;;;15.10;99.90;;;;;;4789996;29;19926;-71
2022/07/10 06:32:12;;;;;;;;;;;15.10;99.90;;;;;;4802894;29;19925;-71
2022/07/10 06:34:38;;;;;;;;;;;15.20;99.90;;;;;;4804200;29;20344;-73
2022/07/10 06:37:03;;;;;;;;;;;15.20;99.90;;;;;;4803427;29;20276;-72
2022/07/10 06:39:33;;;;;;;;;;;15.20;99.90;;;;;;4804247;29;19926;-70
2022/07/10 06:42:00;;;;;;;;;;;15.30;99.90;;;;;;4788268;29;20018;-72
2022/07/10 06:44:25;;;;;;;;;;;15.20;99.90;;;;;;4803970;29;19925;-70
2022/07/10 06:49:35;;;;;;;;;;;15.20;99.90;;;;;;4788699;29;19929;-71
2022/07/10 06:52:00;;;;;;;;;;;15.30;99.90;;;;;;4803354;29;19926;-72
2022/07/10 06:54:26;;;;;;;;;;;15.30;99.90;;;;;;4803298;29;20010;-71
2022/07/10 06:56:52;;;;;;;;;;;15.30;99.90;;;;;;4803364;29;19933;-70
2022/07/10 06:59:18;;;;;;;;;;;15.40;99.90;;;;;;4788518;29;19930;-71
2022/07/10 07:01:43;;;;;;;;;;;15.40;99.90;;;;;;4803036;29;20008;-72
2022/07/10 07:04:09;;;;;;;;;;;15.40;99.90;;;;;;4804360;29;20012;-70
2022/07/10 07:06:35;;;;;;;;;;;15.40;99.90;;;;;;4803276;29;19935;-72
2022/07/10 07:09:03;;;;;;;;;;;15.50;99.90;;;;;;4803035;29;19932;-71
2022/07/10 07:11:28;;;;;;;;;;;15.50;99.90;;;;;;4803577;29;19925;-71
2022/07/10 07:13:54;;;;;;;;;;;15.50;99.90;;;;;;4803483;29;19982;-73
2022/07/10 07:16:26;;;;;;;;;;;15.50;99.90;;;;;;4789383;29;20384;-71
2022/07/10 07:18:54;;;;;;;;;;;15.60;99.90;;;;;;4788883;29;20378;-71
2022/07/10 07:24:05;;;;;;;;;;;15.80;99.90;;;;;;4788249;29;20137;-69
2022/07/10 07:26:30;;;;;;;;;;;15.90;99.90;;;;;;4788887;29;20402;-73
2022/07/10 07:28:56;;;;;;;;;;;15.90;99.90;;;;;;4802917;29;19925;-73
2022/07/10 07:31:21;;;;;;;;;;;16.00;99.90;;;;;;4801906;29;20023;-72
2022/07/10 07:33:47;;;;;;;;;;;16.00;99.90;;;;;;4786958;30;19925;-73
2022/07/10 07:36:13;;;;;;;;;;;16.00;99.90;;;;;;4788721;29;19982;-72
2022/07/10 07:38:38;;;;;;;;;;;16.00;99.90;;;;;;4789188;29;19948;-72
2022/07/10 07:41:04;;;;;;;;;;;15.90;99.90;;;;;;4787746;30;19998;-72
2022/07/10 07:43:29;;;;;;;;;;;16.00;99.90;;;;;;4803051;29;20018;-74
2022/07/10 07:45:55;;;;;;;;;;;16.00;99.90;;;;;;4788712;29;19925;-71
2022/07/10 07:48:20;;;;;;;;;;;16.00;99.90;;;;;;4802240;29;19971;-72
2022/07/10 07:50:46;;;;;;;;;;;16.00;99.90;;;;;;4788805;29;19925;-71
2022/07/10 07:53:12;;;;;;;;;;;16.10;99.90;;;;;;4802442;29;19926;-73
2022/07/10 07:55:37;;;;;;;;;;;16.30;99.90;;;;;;4788819;29;19954;-71
2022/07/10 07:58:03;;;;;;;;;;;16.40;99.90;;;;;;4802579;29;20372;-71
2022/07/10 08:00:29;;;;;;;;;;;16.60;99.90;;;;;;4802398;29;20018;-71
2022/07/10 08:02:55;;;;;;;;;;;16.70;99.90;;;;;;4788228;29;20005;-73
2022/07/10 08:05:23;;;;;;;;;;;16.70;99.90;;;;;;4787378;30;19933;-72
2022/07/10 08:07:55;;;;;;;;;;;16.70;99.90;;;;;;4802867;29;19957;-71
2022/07/10 08:10:22;;;;;;;;;;;16.70;99.90;;;;;;4788840;29;19925;-70
2022/07/10 08:12:47;;;;;;;;;;;16.70;99.90;;;;;;4788372;29;19932;-72
2022/07/10 08:15:14;;;;;;;;;;;16.60;99.90;;;;;;4802332;29;19925;-70
2022/07/10 08:17:40;;;;;;;;;;;16.50;99.90;;;;;;4802154;29;20062;-74
2022/07/10 08:20:06;;;;;;;;;;;16.50;99.90;;;;;;4787865;30;19967;-71
2022/07/10 08:22:32;;;;;;;;;;;16.40;99.90;;;;;;4788333;29;19927;-73
2022/07/10 08:24:58;;;;;;;;;;;16.60;99.90;;;;;;4801986;29;20016;-71
2022/07/10 08:27:23;;;;;;;;;;;16.60;99.90;;;;;;4802121;29;19929;-73
2022/07/10 08:29:49;;;;;;;;;;;16.60;99.90;;;;;;4802177;29;20402;-73
2022/07/10 08:32:14;;;;;;;;;;;16.60;99.90;;;;;;4801458;29;19925;-71
2022/07/10 08:34:40;;;;;;;;;;;16.70;99.90;;;;;;4801863;29;19973;-71
2022/07/10 08:37:05;;;;;;;;;;;16.70;99.90;;;;;;4787978;29;19943;-71
2022/07/10 08:39:31;;;;;;;;;;;16.60;99.90;;;;;;4801745;29;19921;-73
2022/07/10 08:41:57;;;;;;;;;;;16.50;99.90;;;;;;4801696;29;19925;-72
2022/07/10 08:44:23;;;;;;;;;;;16.50;99.90;;;;;;4792256;29;20310;-70
2022/07/10 08:46:49;;;;;;;;;;;16.40;99.90;;;;;;4805696;29;19941;-71
2022/07/10 08:49:16;;;;;;;;;;;16.40;99.90;;;;;;4791810;29;19928;-70
2022/07/10 08:51:56;;;;;;;;;;;16.30;99.90;;;;;;4790383;29;19925;-70
2022/07/10 08:54:22;;;;;;;;;;;16.20;99.90;;;;;;4805346;29;19921;-72
2022/07/10 08:56:47;;;;;;;;;;;16.20;99.90;;;;;;4805621;29;20272;-72
2022/07/10 08:59:14;;;;;;;;;;;16.20;99.90;;;;;;4805872;29;19925;-74
2022/07/10 09:01:39;;;;;;;;;;;16.10;99.90;;;;;;4791162;29;19925;-73
2022/07/10 09:04:05;;;;;;;;;;;16.20;99.90;;;;;;4787308;29;19925;-72
2022/07/10 09:06:30;;;;;;;;;;;16.30;99.90;;;;;;4805786;29;20283;-70
2022/07/10 09:08:59;;;;;;;;;;;16.40;99.90;;;;;;4791440;29;19948;-74
2022/07/10 09:11:28;;;;;;;;;;;16.50;99.90;;;;;;4805983;29;19929;-75
2022/07/10 09:13:55;;;;;;;;;;;16.60;99.90;;;;;;4791249;29;19954;-71
2022/07/10 09:16:22;;;;;;;;;;;16.60;99.90;;;;;;4791464;29;20024;-71
2022/07/10 09:18:48;;;;;;;;;;;16.60;99.90;;;;;;4804496;29;19929;-71
2022/07/10 09:21:13;;;;;;;;;;;16.60;99.90;;;;;;4805230;29;19949;-70
2022/07/10 09:23:39;;;;;;;;;;;16.60;99.90;;;;;;4804949;29;19925;-71
2022/07/10 09:26:04;;;;;;;;;;;16.60;99.90;;;;;;4805344;29;19929;-71
2022/07/10 09:28:30;;;;;;;;;;;16.60;99.90;;;;;;4789804;29;20427;-75
2022/07/10 09:30:55;;;;;;;;;;;16.60;99.90;;;;;;4804630;29;19929;-72
2022/07/10 09:33:25;;;;;;;;;;;16.60;99.90;;;;;;4790199;29;20012;-73
2022/07/10 09:36:10;;;;;;;;;;;16.60;99.90;;;;;;4789906;29;19925;-72
2022/07/10 09:38:39;;;;;;;;;;;16.50;99.90;;;;;;4804586;29;19934;-72
2022/07/10 09:41:14;;;;;;;;;;;16.60;99.90;;;;;;4790625;29;19937;-73
2022/07/10 09:43:46;;;;;;;;;;;16.60;99.90;;;;;;4790774;29;19935;-72
2022/07/10 09:46:12;;;;;;;;;;;16.60;99.90;;;;;;4789240;29;19933;-71
2022/07/10 09:48:37;;;;;;;;;;;16.70;99.90;;;;;;4788770;29;19933;-70
2022/07/10 09:51:06;;;;;;;;;;;16.60;99.90;;;;;;4790763;29;19926;-71
2022/07/10 09:53:32;;;;;;;;;;;16.70;99.90;;;;;;4803696;29;19983;-74
2022/07/10 09:55:59;;;;;;;;;;;16.80;99.90;;;;;;4804751;29;20293;-72
2022/07/10 09:58:27;;;;;;;;;;;16.80;99.90;;;;;;4803975;29;19926;-71
2022/07/10 10:00:54;;;;;;;;;;;17.00;99.90;;;;;;4804445;29;19977;-72
2022/07/10 10:03:20;;;;;;;;;;;17.10;99.90;;;;;;4803599;29;20378;-72
2022/07/10 10:05:52;;;;;;;;;;;17.20;99.90;;;;;;4804365;29;19921;-71
2022/07/10 10:08:25;;;;;;;;;;;17.30;99.90;;;;;;4804181;29;20443;-72
2022/07/10 10:10:51;;;;;;;;;;;17.40;99.90;;;;;;4789298;30;20359;-72
2022/07/10 10:13:18;;;;;;;;;;;17.50;99.90;;;;;;4803944;29;19938;-74
2022/07/10 10:15:45;;;;;;;;;;;17.40;99.90;;;;;;4774083;30;20387;-71
2022/07/10 10:18:11;;;;;;;;;;;17.20;99.90;;;;;;4789879;29;20358;-70
2022/07/10 10:20:37;;;;;;;;;;;17.10;99.90;;;;;;4789882;29;20311;-72
2022/07/10 10:23:08;;;;;;;;;;;16.80;99.90;;;;;;4803892;29;19926;-70
2022/07/10 10:25:35;;;;;;;;;;;16.70;99.90;;;;;;4790264;29;20005;-70
2022/07/10 10:28:01;;;;;;;;;;;16.60;99.90;;;;;;4788795;29;19932;-71
2022/07/10 10:30:27;;;;;;;;;;;16.70;99.90;;;;;;4788820;30;19958;-69
2022/07/10 10:32:52;;;;;;;;;;;16.90;99.90;;;;;;4803524;29;19925;-69
2022/07/10 10:35:37;;;;;;;;;;;17.00;99.90;;;;;;4804076;29;19932;-70
2022/07/10 10:38:02;;;;;;;;;;;17.10;99.90;;;;;;4803229;29;19929;-71
2022/07/10 10:40:32;;;;;;;;;;;17.20;99.90;;;;;;4803834;29;19933;-71
2022/07/10 10:42:58;;;;;;;;;;;17.30;99.90;;;;;;4788238;30;19930;-71
2022/07/10 10:45:31;;;;;;;;;;;17.30;99.90;;;;;;4803756;29;19926;-70
2022/07/10 10:48:00;;;;;;;;;;;17.10;99.90;;;;;;4803690;29;20322;-70
2022/07/10 10:50:38;;;;;;;;;;;17.00;99.90;;;;;;4803839;29;20315;-69
2022/07/10 10:53:05;;;;;;;;;;;17.10;99.90;;;;;;4803430;29;20284;-70
2022/07/10 10:55:30;;;;;;;;;;;17.30;99.90;;;;;;4803709;29;20035;-69
2022/07/10 10:58:11;;;;;;;;;;;17.50;99.90;;;;;;4802938;29;19999;-71
2022/07/10 11:00:37;;;;;;;;;;;17.60;99.90;;;;;;4803551;29;19925;-71
2022/07/10 11:03:12;;;;;;;;;;;17.70;99.90;;;;;;4788325;29;19947;-72
2022/07/10 11:05:41;;;;;;;;;;;17.90;99.90;;;;;;4803536;29;19932;-72
2022/07/10 11:08:07;;;;;;;;;;;18.10;99.90;;;;;;4803243;29;19998;-72
2022/07/10 11:10:36;;;;;;;;;;;18.30;99.90;;;;;;4803481;29;19976;-72
2022/07/10 11:13:17;;;;;;;;;;;18.50;99.90;;;;;;4802629;29;19932;-72
2022/07/10 11:15:44;;;;;;;;;;;18.40;99.90;;;;;;4788229;29;19932;-69
2022/07/10 11:18:13;;;;;;;;;;;18.50;99.90;;;;;;4802155;29;19925;-71
2022/07/10 11:20:38;;;;;;;;;;;18.50;99.90;;;;;;4803360;29;19976;-72
2022/07/10 11:23:03;;;;;;;;;;;18.70;99.90;;;;;;4803039;29;19964;-73
2022/07/10 11:25:44;;;;;;;;;;;18.90;99.90;;;;;;4803161;29;20343;-72
2022/07/10 11:28:13;;;;;;;;;;;18.70;99.90;;;;;;4802762;29;19951;-72
2022/07/10 11:30:46;;;;;;;;;;;18.50;99.90;;;;;;4802907;29;20436;-70
2022/07/10 11:33:11;;;;;;;;;;;18.40;99.90;;;;;;4788151;29;19925;-71
2022/07/10 11:35:40;;;;;;;;;;;18.20;99.90;;;;;;4802840;29;19925;-71
2022/07/10 11:38:05;;;;;;;;;;;18.20;99.90;;;;;;4802509;29;19926;-71
2022/07/10 11:40:36;;;;;;;;;;;18.20;99.90;;;;;;4789021;29;19932;-73
2022/07/10 11:43:04;;;;;;;;;;;18.30;99.90;;;;;;4787315;29;20095;-72
2022/07/10 11:45:31;;;;;;;;;;;18.60;99.90;;;;;;4802447;29;19925;-74
2022/07/10 11:47:57;;;;;;;;;;;18.70;99.90;;;;;;4771989;29;19921;-73
2022/07/10 11:50:22;;;;;;;;;;;18.90;99.90;;;;;;4787458;29;19929;-73
2022/07/10 11:52:49;;;;;;;;;;;18.90;99.90;;;;;;4794527;29;19922;-70
2022/07/10 11:55:19;;;;;;;;;;;18.90;99.90;;;;;;4796660;29;20044;-71
2022/07/10 11:57:48;;;;;;;;;;;18.70;99.90;;;;;;4795236;29;19936;-73
2022/07/10 12:00:27;;;;;;;;;;;18.40;99.90;;;;;;4800950;29;20839;-70
2022/07/10 12:02:53;;;;;;;;;;;18.00;99.90;;;;;;4799165;29;19930;-74
2022/07/10 12:05:32;;;;;;;;;;;17.80;99.90;;;;;;4785271;29;19940;-72
2022/07/10 12:07:58;;;;;;;;;;;17.80;99.90;;;;;;4796137;29;19921;-70
2022/07/10 12:10:27;;;;;;;;;;;17.80;99.90;;;;;;4795451;29;19929;-72
2022/07/10 12:12:52;;;;;;;;;;;17.90;99.90;;;;;;4782380;29;19929;-74
2022/07/10 12:15:31;;;;;;;;;;;17.90;99.90;;;;;;4788622;29;19987;-71
2022/07/10 12:17:57;;;;;;;;;;;17.90;99.90;;;;;;4781055;29;19926;-74
2022/07/10 12:20:22;;;;;;;;;;;17.90;99.90;;;;;;4799729;29;19932;-70
2022/07/10 12:22:48;;;;;;;;;;;18.00;99.90;;;;;;4779386;29;19982;-71
2022/07/10 12:25:13;;;;;;;;;;;17.90;99.90;;;;;;4798411;29;19929;-73
2022/07/10 12:27:39;;;;;;;;;;;17.80;99.90;;;;;;4798890;29;20007;-70
2022/07/10 12:30:05;;;;;;;;;;;17.70;99.90;;;;;;4776888;29;19936;-69
2022/07/10 12:32:31;;;;;;;;;;;17.50;99.90;;;;;;4764871;30;19925;-71
2022/07/10 12:34:58;;;;;;;;;;;17.40;99.90;;;;;;4794115;29;19925;-75
2022/07/10 12:37:24;;;;;;;;;;;17.20;99.90;;;;;;4775585;29;19929;-71
2022/07/10 12:39:52;;;;;;;;;;;17.10;99.90;;;;;;4766807;29;19925;-70
2022/07/10 12:42:27;;;;;;;;;;;17.10;99.90;;;;;;4777608;30;19983;-70
2022/07/10 12:44:53;;;;;;;;;;;17.10;99.90;;;;;;4801173;29;19925;-72
2022/07/10 12:47:22;;;;;;;;;;;17.20;99.90;;;;;;4785619;29;20291;-72
2022/07/10 12:49:47;;;;;;;;;;;17.30;99.90;;;;;;4800512;29;19936;-71
2022/07/10 12:52:23;;;;;;;;;;;17.30;99.90;;;;;;4789388;29;20540;-73
2022/07/10 12:54:48;;;;;;;;;;;17.30;99.90;;;;;;4800391;29;20364;-74
2022/07/10 12:57:14;;;;;;;;;;;17.40;99.90;;;;;;4805198;29;19932;-74
2022/07/10 12:59:41;;;;;;;;;;;17.50;99.90;;;;;;4805029;29;19925;-71
2022/07/10 13:02:15;;;;;;;;;;;17.60;99.90;;;;;;4774029;29;19969;-70
2022/07/10 13:04:51;;;;;;;;;;;17.70;99.90;;;;;;4804525;29;19925;-73
2022/07/10 13:07:16;;;;;;;;;;;17.80;99.90;;;;;;4804910;29;19976;-71
2022/07/10 13:09:44;;;;;;;;;;;17.90;99.90;;;;;;4804455;29;19960;-70
2022/07/10 13:12:09;;;;;;;;;;;17.90;99.90;;;;;;4805317;29;20375;-72
2022/07/10 13:14:35;;;;;;;;;;;18.10;99.90;;;;;;4788994;29;20008;-70
2022/07/10 13:17:00;;;;;;;;;;;18.30;99.90;;;;;;4801111;29;20337;-70
2022/07/10 13:19:26;;;;;;;;;;;18.50;99.90;;;;;;4801328;29;19929;-70
2022/07/10 13:21:51;;;;;;;;;;;18.70;99.90;;;;;;4789285;29;19925;-69
2022/07/10 13:24:17;;;;;;;;;;;18.90;99.90;;;;;;4789463;29;20262;-67
2022/07/10 13:26:43;;;;;;;;;;;18.90;99.90;;;;;;4805508;29;19925;-68
2022/07/10 13:29:08;;;;;;;;;;;18.90;99.90;;;;;;4788662;29;19933;-68
2022/07/10 13:31:34;;;;;;;;;;;18.80;99.90;;;;;;4808525;29;19981;-68
2022/07/10 13:33:59;;;;;;;;;;;18.70;99.90;;;;;;4807321;29;19932;-68
2022/07/10 13:36:24;;;;;;;;;;;18.70;99.90;;;;;;4806262;29;20276;-69
2022/07/10 13:38:52;;;;;;;;;;;18.60;99.90;;;;;;4808934;29;19940;-72
2022/07/10 13:41:18;;;;;;;;;;;18.60;99.90;;;;;;4808808;29;20035;-69
2022/07/10 13:43:44;;;;;;;;;;;18.50;99.90;;;;;;4807635;29;20074;-70
2022/07/10 13:46:09;;;;;;;;;;;18.60;99.90;;;;;;4791954;29;20399;-72
2022/07/10 13:48:35;;;;;;;;;;;18.70;99.90;;;;;;4774431;29;19935;-69
2022/07/10 13:51:00;;;;;;;;;;;18.70;99.90;;;;;;4784287;29;19993;-70
2022/07/10 13:53:26;;;;;;;;;;;18.70;99.90;;;;;;4802568;29;20041;-71
2022/07/10 13:55:52;;;;;;;;;;;18.80;99.90;;;;;;4780440;29;19941;-71
2022/07/10 13:58:19;;;;;;;;;;;18.90;99.90;;;;;;4799644;29;19925;-71
2022/07/10 14:00:45;;;;;;;;;;;18.90;99.90;;;;;;4799009;29;19930;-70
2022/07/10 14:03:11;;;;;;;;;;;18.90;99.90;;;;;;4780047;30;19932;-70
2022/07/10 14:05:36;;;;;;;;;;;19.10;99.90;;;;;;4788104;29;19925;-71
2022/07/10 14:08:02;;;;;;;;;;;18.90;99.90;;;;;;4780210;29;20328;-70
2022/07/10 14:10:28;;;;;;;;;;;18.80;99.90;;;;;;4803926;29;19972;-71
2022/07/10 14:12:54;;;;;;;;;;;18.90;99.90;;;;;;4787728;29;19954;-71
2022/07/10 14:15:20;;;;;;;;;;;18.90;99.90;;;;;;4771461;29;20465;-72
2022/07/10 14:17:45;;;;;;;;;;;19.00;99.90;;;;;;4782135;29;19940;-73
2022/07/10 14:20:11;;;;;;;;;;;19.20;99.90;;;;;;4783193;29;20397;-71
2022/07/10 14:22:37;;;;;;;;;;;19.40;99.90;;;;;;4799391;29;20298;-72